sensor_id;sensor_type;location;lat;lon;timestamp;temperature;humidity
71177;DHT22;58877;51.992;4.504;2023-05-07T00:01:38;16.13;83.47
71177;DHT22;58877;51.992;4.504;2023-05-07T00:04:07;16.10;83.12
71177;DHT22;58877;51.992;4.504;2023-05-07T00:06:33;16.08;83.20
71177;DHT22;58877;51.992;4.504;2023-05-07T00:09:00;16.08;83.11
71177;DHT22;58877;51.992;4.504;2023-05-07T00:11:29;16.05;83.16
71177;DHT22;58877;51.992;4.504;2023-05-07T00:13:59;15.97;83.14
71177;DHT22;58877;51.992;4.504;2023-05-07T00:16:28;15.97;83.32
71177;DHT22;58877;51.992;4.504;2023-05-07T00:18:55;15.94;83.39
71177;DHT22;58877;51.992;4.504;2023-05-07T00:21:28;15.93;83.26
71177;DHT22;58877;51.992;4.504;2023-05-07T00:23:54;15.87;83.32
71177;DHT22;58877;51.992;4.504;2023-05-07T00:26:23;15.87;83.45
71177;DHT22;58877;51.992;4.504;2023-05-07T00:28:51;15.86;83.53
71177;DHT22;58877;51.992;4.504;2023-05-07T00:31:18;15.81;83.67
71177;DHT22;58877;51.992;4.504;2023-05-07T00:33:48;15.80;83.62
71177;DHT22;58877;51.992;4.504;2023-05-07T00:36:17;15.81;83.70
71177;DHT22;58877;51.992;4.504;2023-05-07T00:38:43;15.83;83.65
71177;DHT22;58877;51.992;4.504;2023-05-07T00:41:12;15.83;83.83
71177;DHT22;58877;51.992;4.504;2023-05-07T00:43:38;15.87;83.85
71177;DHT22;58877;51.992;4.504;2023-05-07T00:46:04;15.87;83.75
71177;DHT22;58877;51.992;4.504;2023-05-07T00:48:30;15.86;83.70
71177;DHT22;58877;51.992;4.504;2023-05-07T00:50:57;15.87;83.61
71177;DHT22;58877;51.992;4.504;2023-05-07T00:53:22;15.83;83.68
71177;DHT22;58877;51.992;4.504;2023-05-07T00:55:48;15.84;83.73
71177;DHT22;58877;51.992;4.504;2023-05-07T00:58:14;15.83;83.77
71177;DHT22;58877;51.992;4.504;2023-05-07T01:00:40;15.79;83.82
71177;DHT22;58877;51.992;4.504;2023-05-07T01:03:06;15.83;83.83
71177;DHT22;58877;51.992;4.504;2023-05-07T01:05:32;15.79;83.84
71177;DHT22;58877;51.992;4.504;2023-05-07T01:07:59;15.79;83.73
71177;DHT22;58877;51.992;4.504;2023-05-07T01:10:25;15.80;83.81
71177;DHT22;58877;51.992;4.504;2023-05-07T01:12:53;15.77;83.79
71177;DHT22;58877;51.992;4.504;2023-05-07T01:15:19;15.76;83.75
71177;DHT22;58877;51.992;4.504;2023-05-07T01:17:45;15.74;83.81
71177;DHT22;58877;51.992;4.504;2023-05-07T01:20:11;15.74;83.84
71177;DHT22;58877;51.992;4.504;2023-05-07T01:22:38;15.73;83.74
71177;DHT22;58877;51.992;4.504;2023-05-07T01:25:07;15.74;83.74
71177;DHT22;58877;51.992;4.504;2023-05-07T01:27:33;15.73;83.76
71177;DHT22;58877;51.992;4.504;2023-05-07T01:30:00;15.76;83.53
71177;DHT22;58877;51.992;4.504;2023-05-07T01:32:42;15.74;83.32
71177;DHT22;58877;51.992;4.504;2023-05-07T01:35:12;15.69;83.33
71177;DHT22;58877;51.992;4.504;2023-05-07T01:37:40;15.69;83.41
71177;DHT22;58877;51.992;4.504;2023-05-07T01:40:08;15.67;83.56
71177;DHT22;58877;51.992;4.504;2023-05-07T01:42:35;15.67;83.61
71177;DHT22;58877;51.992;4.504;2023-05-07T01:45:02;15.69;83.63
71177;DHT22;58877;51.992;4.504;2023-05-07T01:47:29;15.77;83.63
71177;DHT22;58877;51.992;4.504;2023-05-07T01:49:55;15.83;83.43
71177;DHT22;58877;51.992;4.504;2023-05-07T01:52:22;15.81;83.43
71177;DHT22;58877;51.992;4.504;2023-05-07T01:54:47;15.83;83.38
71177;DHT22;58877;51.992;4.504;2023-05-07T01:57:14;15.81;83.52
71177;DHT22;58877;51.992;4.504;2023-05-07T01:59:39;15.83;83.66
71177;DHT22;58877;51.992;4.504;2023-05-07T02:02:05;15.86;83.65
71177;DHT22;58877;51.992;4.504;2023-05-07T02:04:31;15.86;83.73
71177;DHT22;58877;51.992;4.504;2023-05-07T02:06:57;15.89;83.69
71177;DHT22;58877;51.992;4.504;2023-05-07T02:09:23;15.90;83.67
71177;DHT22;58877;51.992;4.504;2023-05-07T02:11:49;15.93;83.72
71177;DHT22;58877;51.992;4.504;2023-05-07T02:14:15;15.96;83.64
71177;DHT22;58877;51.992;4.504;2023-05-07T02:16:41;15.89;83.65
71177;DHT22;58877;51.992;4.504;2023-05-07T02:19:07;15.86;83.84
71177;DHT22;58877;51.992;4.504;2023-05-07T02:21:33;15.90;83.85
71177;DHT22;58877;51.992;4.504;2023-05-07T02:23:59;15.93;83.78
71177;DHT22;58877;51.992;4.504;2023-05-07T02:26:25;15.89;83.71
71177;DHT22;58877;51.992;4.504;2023-05-07T02:28:51;15.89;83.81
71177;DHT22;58877;51.992;4.504;2023-05-07T02:31:17;15.91;83.77
71177;DHT22;58877;51.992;4.504;2023-05-07T02:33:43;15.90;83.90
71177;DHT22;58877;51.992;4.504;2023-05-07T02:36:12;15.89;84.14
71177;DHT22;58877;51.992;4.504;2023-05-07T02:38:38;15.87;84.15
71177;DHT22;58877;51.992;4.504;2023-05-07T02:41:04;15.90;84.21
71177;DHT22;58877;51.992;4.504;2023-05-07T02:43:44;15.94;84.20
71177;DHT22;58877;51.992;4.504;2023-05-07T02:46:15;15.93;84.36
71177;DHT22;58877;51.992;4.504;2023-05-07T02:48:41;15.94;84.32
71177;DHT22;58877;51.992;4.504;2023-05-07T02:51:07;15.98;84.29
71177;DHT22;58877;51.992;4.504;2023-05-07T02:53:33;16.00;84.42
71177;DHT22;58877;51.992;4.504;2023-05-07T02:56:02;16.00;84.37
71177;DHT22;58877;51.992;4.504;2023-05-07T02:58:28;15.98;84.43
71177;DHT22;58877;51.992;4.504;2023-05-07T03:00:55;16.07;84.34
71177;DHT22;58877;51.992;4.504;2023-05-07T03:03:21;16.04;84.25
71177;DHT22;58877;51.992;4.504;2023-05-07T03:05:47;16.03;84.50
71177;DHT22;58877;51.992;4.504;2023-05-07T03:08:13;16.08;84.32
71177;DHT22;58877;51.992;4.504;2023-05-07T03:10:39;16.04;84.36
71177;DHT22;58877;51.992;4.504;2023-05-07T03:13:05;16.07;84.27
71177;DHT22;58877;51.992;4.504;2023-05-07T03:15:31;16.04;84.41
71177;DHT22;58877;51.992;4.504;2023-05-07T03:17:57;16.07;84.32
71177;DHT22;58877;51.992;4.504;2023-05-07T03:20:22;16.04;84.27
71177;DHT22;58877;51.992;4.504;2023-05-07T03:22:48;16.07;84.35
71177;DHT22;58877;51.992;4.504;2023-05-07T03:25:14;16.04;84.38
71177;DHT22;58877;51.992;4.504;2023-05-07T03:27:40;16.03;84.49
71177;DHT22;58877;51.992;4.504;2023-05-07T03:30:13;16.04;84.50
71177;DHT22;58877;51.992;4.504;2023-05-07T03:32:45;16.08;84.43
71177;DHT22;58877;51.992;4.504;2023-05-07T03:35:12;16.05;84.31
71177;DHT22;58877;51.992;4.504;2023-05-07T03:37:39;16.08;84.32
71177;DHT22;58877;51.992;4.504;2023-05-07T03:40:08;16.13;84.22
71177;DHT22;58877;51.992;4.504;2023-05-07T03:42:58;16.10;84.22
71177;DHT22;58877;51.992;4.504;2023-05-07T03:45:34;16.13;84.25
71177;DHT22;58877;51.992;4.504;2023-05-07T03:48:13;16.11;84.28
71177;DHT22;58877;51.992;4.504;2023-05-07T03:50:51;16.14;84.31
71177;DHT22;58877;51.992;4.504;2023-05-07T03:53:17;16.10;84.41
71177;DHT22;58877;51.992;4.504;2023-05-07T03:55:46;16.10;84.42
71177;DHT22;58877;51.992;4.504;2023-05-07T03:58:13;16.08;84.40
71177;DHT22;58877;51.992;4.504;2023-05-07T04:00:39;16.10;84.47
71177;DHT22;58877;51.992;4.504;2023-05-07T04:03:05;16.13;84.25
71177;DHT22;58877;51.992;4.504;2023-05-07T04:05:31;16.10;84.27
71177;DHT22;58877;51.992;4.504;2023-05-07T04:07:58;16.13;84.33
71177;DHT22;58877;51.992;4.504;2023-05-07T04:10:25;16.13;84.24
71177;DHT22;58877;51.992;4.504;2023-05-07T04:12:52;16.15;84.31
71177;DHT22;58877;51.992;4.504;2023-05-07T04:15:19;16.14;84.09
71177;DHT22;58877;51.992;4.504;2023-05-07T04:17:45;16.05;84.00
71177;DHT22;58877;51.992;4.504;2023-05-07T04:20:15;16.03;84.21
71177;DHT22;58877;51.992;4.504;2023-05-07T04:22:41;16.07;84.27
71177;DHT22;58877;51.992;4.504;2023-05-07T04:25:08;16.08;84.19
71177;DHT22;58877;51.992;4.504;2023-05-07T04:27:35;16.05;84.20
71177;DHT22;58877;51.992;4.504;2023-05-07T04:30:05;16.07;84.30
71177;DHT22;58877;51.992;4.504;2023-05-07T04:32:36;16.10;84.35
71177;DHT22;58877;51.992;4.504;2023-05-07T04:35:03;16.13;84.30
71177;DHT22;58877;51.992;4.504;2023-05-07T04:37:29;16.13;84.15
71177;DHT22;58877;51.992;4.504;2023-05-07T04:39:57;16.14;84.19
71177;DHT22;58877;51.992;4.504;2023-05-07T04:42:22;16.21;84.14
71177;DHT22;58877;51.992;4.504;2023-05-07T04:44:53;16.20;84.01
71177;DHT22;58877;51.992;4.504;2023-05-07T04:47:19;16.18;83.87
71177;DHT22;58877;51.992;4.504;2023-05-07T04:49:45;16.20;83.94
71177;DHT22;58877;51.992;4.504;2023-05-07T04:52:11;16.21;84.04
71177;DHT22;58877;51.992;4.504;2023-05-07T04:54:37;16.24;83.97
71177;DHT22;58877;51.992;4.504;2023-05-07T04:57:04;16.28;83.88
71177;DHT22;58877;51.992;4.504;2023-05-07T04:59:30;16.24;83.78
71177;DHT22;58877;51.992;4.504;2023-05-07T05:01:55;16.25;83.94
71177;DHT22;58877;51.992;4.504;2023-05-07T05:04:30;16.34;83.92
71177;DHT22;58877;51.992;4.504;2023-05-07T05:06:57;16.35;83.87
71177;DHT22;58877;51.992;4.504;2023-05-07T05:09:24;16.35;83.97
71177;DHT22;58877;51.992;4.504;2023-05-07T05:11:49;16.41;83.76
71177;DHT22;58877;51.992;4.504;2023-05-07T05:14:15;16.44;83.73
71177;DHT22;58877;51.992;4.504;2023-05-07T05:16:41;16.45;83.79
71177;DHT22;58877;51.992;4.504;2023-05-07T05:19:07;16.52;83.67
71177;DHT22;58877;51.992;4.504;2023-05-07T05:21:33;16.55;83.63
71177;DHT22;58877;51.992;4.504;2023-05-07T05:23:59;16.61;83.48
71177;DHT22;58877;51.992;4.504;2023-05-07T05:26:26;16.65;83.39
71177;DHT22;58877;51.992;4.504;2023-05-07T05:28:51;16.65;83.02
71177;DHT22;58877;51.992;4.504;2023-05-07T05:31:17;16.66;83.19
71177;DHT22;58877;51.992;4.504;2023-05-07T05:33:42;16.66;83.14
71177;DHT22;58877;51.992;4.504;2023-05-07T05:36:11;16.76;83.01
71177;DHT22;58877;51.992;4.504;2023-05-07T05:38:41;16.75;82.84
71177;DHT22;58877;51.992;4.504;2023-05-07T05:44:37;16.82;82.52
71177;DHT22;58877;51.992;4.504;2023-05-07T05:50:35;16.89;82.50
71177;DHT22;58877;51.992;4.504;2023-05-07T05:53:20;16.92;82.51
71177;DHT22;58877;51.992;4.504;2023-05-07T05:56:00;16.99;82.44
71177;DHT22;58877;51.992;4.504;2023-05-07T05:58:26;17.02;82.46
71177;DHT22;58877;51.992;4.504;2023-05-07T06:00:51;17.06;82.13
71177;DHT22;58877;51.992;4.504;2023-05-07T06:03:18;17.05;81.90
71177;DHT22;58877;51.992;4.504;2023-05-07T06:05:50;17.09;81.97
71177;DHT22;58877;51.992;4.504;2023-05-07T06:08:15;17.12;81.93
71177;DHT22;58877;51.992;4.504;2023-05-07T06:10:41;17.12;81.69
71177;DHT22;58877;51.992;4.504;2023-05-07T06:13:10;17.19;81.73
71177;DHT22;58877;51.992;4.504;2023-05-07T06:15:36;17.30;81.70
71177;DHT22;58877;51.992;4.504;2023-05-07T06:18:02;17.30;81.31
71177;DHT22;58877;51.992;4.504;2023-05-07T06:20:30;17.24;81.41
71177;DHT22;58877;51.992;4.504;2023-05-07T06:22:57;17.23;81.54
71177;DHT22;58877;51.992;4.504;2023-05-07T06:25:25;17.33;81.89
71177;DHT22;58877;51.992;4.504;2023-05-07T06:27:51;17.33;81.46
71177;DHT22;58877;51.992;4.504;2023-05-07T06:30:19;17.36;81.41
71177;DHT22;58877;51.992;4.504;2023-05-07T06:32:45;17.40;81.43
71177;DHT22;58877;51.992;4.504;2023-05-07T06:35:10;17.43;81.33
71177;DHT22;58877;51.992;4.504;2023-05-07T06:37:42;17.50;81.43
71177;DHT22;58877;51.992;4.504;2023-05-07T06:40:12;17.62;81.43
71177;DHT22;58877;51.992;4.504;2023-05-07T06:42:38;17.62;81.07
71177;DHT22;58877;51.992;4.504;2023-05-07T06:45:06;17.62;81.45
71177;DHT22;58877;51.992;4.504;2023-05-07T06:47:33;17.62;81.16
71177;DHT22;58877;51.992;4.504;2023-05-07T06:50:12;17.69;81.29
71177;DHT22;58877;51.992;4.504;2023-05-07T06:52:41;17.67;80.84
71177;DHT22;58877;51.992;4.504;2023-05-07T06:55:07;17.63;80.89
71177;DHT22;58877;51.992;4.504;2023-05-07T06:57:33;17.66;80.69
71177;DHT22;58877;51.992;4.504;2023-05-07T06:59:59;17.59;80.63
71177;DHT22;58877;51.992;4.504;2023-05-07T07:02:24;17.64;80.64
71177;DHT22;58877;51.992;4.504;2023-05-07T07:04:50;17.54;80.66
71177;DHT22;58877;51.992;4.504;2023-05-07T07:07:15;17.49;81.09
71177;DHT22;58877;51.992;4.504;2023-05-07T07:09:41;17.55;80.96
71177;DHT22;58877;51.992;4.504;2023-05-07T07:12:07;17.63;80.85
71177;DHT22;58877;51.992;4.504;2023-05-07T07:14:33;17.81;80.82
71177;DHT22;58877;51.992;4.504;2023-05-07T07:17:20;18.07;80.39
71177;DHT22;58877;51.992;4.504;2023-05-07T07:19:53;18.55;80.12
71177;DHT22;58877;51.992;4.504;2023-05-07T07:22:29;18.89;79.27
71177;DHT22;58877;51.992;4.504;2023-05-07T07:28:48;19.44;77.52
71177;DHT22;58877;51.992;4.504;2023-05-07T07:31:17;19.47;76.44
71177;DHT22;58877;51.992;4.504;2023-05-07T07:33:48;19.53;75.92
71177;DHT22;58877;51.992;4.504;2023-05-07T07:36:15;19.64;76.20
71177;DHT22;58877;51.992;4.504;2023-05-07T07:38:41;19.77;75.45
71177;DHT22;58877;51.992;4.504;2023-05-07T07:41:10;19.78;75.68
71177;DHT22;58877;51.992;4.504;2023-05-07T07:43:35;19.87;75.26
71177;DHT22;58877;51.992;4.504;2023-05-07T07:46:01;19.89;74.76
71177;DHT22;58877;51.992;4.504;2023-05-07T07:48:27;19.73;74.66
71177;DHT22;58877;51.992;4.504;2023-05-07T07:50:55;19.65;75.15
71177;DHT22;58877;51.992;4.504;2023-05-07T07:53:21;19.68;75.32
71177;DHT22;58877;51.992;4.504;2023-05-07T07:55:52;19.63;74.82
71177;DHT22;58877;51.992;4.504;2023-05-07T07:58:17;19.57;75.57
71177;DHT22;58877;51.992;4.504;2023-05-07T08:00:43;19.64;75.50
71177;DHT22;58877;51.992;4.504;2023-05-07T08:03:12;19.70;75.15
71177;DHT22;58877;51.992;4.504;2023-05-07T08:05:38;19.77;75.52
71177;DHT22;58877;51.992;4.504;2023-05-07T08:08:04;19.92;75.93
71177;DHT22;58877;51.992;4.504;2023-05-07T08:10:30;20.07;74.80
71177;DHT22;58877;51.992;4.504;2023-05-07T08:13:00;20.05;74.54
71177;DHT22;58877;51.992;4.504;2023-05-07T08:15:26;20.08;74.98
71177;DHT22;58877;51.992;4.504;2023-05-07T08:17:51;20.19;74.52
71177;DHT22;58877;51.992;4.504;2023-05-07T08:20:18;20.33;74.16
71177;DHT22;58877;51.992;4.504;2023-05-07T08:22:43;20.38;73.57
71177;DHT22;58877;51.992;4.504;2023-05-07T08:25:12;20.32;73.86
71177;DHT22;58877;51.992;4.504;2023-05-07T08:27:40;20.26;73.49
71177;DHT22;58877;51.992;4.504;2023-05-07T08:30:07;20.22;74.16
71177;DHT22;58877;51.992;4.504;2023-05-07T08:32:33;20.25;74.02
71177;DHT22;58877;51.992;4.504;2023-05-07T08:34:59;20.42;73.83
71177;DHT22;58877;51.992;4.504;2023-05-07T08:37:25;20.40;73.42
71177;DHT22;58877;51.992;4.504;2023-05-07T08:39:51;20.42;73.51
71177;DHT22;58877;51.992;4.504;2023-05-07T08:42:17;20.49;73.82
71177;DHT22;58877;51.992;4.504;2023-05-07T08:44:45;20.63;73.57
71177;DHT22;58877;51.992;4.504;2023-05-07T08:47:17;20.70;73.20
71177;DHT22;58877;51.992;4.504;2023-05-07T08:49:43;20.69;72.23
71177;DHT22;58877;51.992;4.504;2023-05-07T08:52:14;20.76;73.22
71177;DHT22;58877;51.992;4.504;2023-05-07T08:54:42;21.14;73.13
71177;DHT22;58877;51.992;4.504;2023-05-07T08:57:08;21.38;71.60
71177;DHT22;58877;51.992;4.504;2023-05-07T08:59:34;21.41;71.19
71177;DHT22;58877;51.992;4.504;2023-05-07T09:02:01;21.33;70.86
71177;DHT22;58877;51.992;4.504;2023-05-07T09:04:27;21.33;71.78
71177;DHT22;58877;51.992;4.504;2023-05-07T09:06:53;21.55;70.84
71177;DHT22;58877;51.992;4.504;2023-05-07T09:09:24;21.54;69.45
71177;DHT22;58877;51.992;4.504;2023-05-07T09:11:57;21.58;69.70
71177;DHT22;58877;51.992;4.504;2023-05-07T09:14:27;21.75;69.55
71177;DHT22;58877;51.992;4.504;2023-05-07T09:16:53;21.87;69.91
71177;DHT22;58877;51.992;4.504;2023-05-07T09:19:23;21.97;68.11
71177;DHT22;58877;51.992;4.504;2023-05-07T09:21:58;22.04;67.85
71177;DHT22;58877;51.992;4.504;2023-05-07T09:24:24;22.02;67.71
71177;DHT22;58877;51.992;4.504;2023-05-07T09:26:49;22.13;67.02
71177;DHT22;58877;51.992;4.504;2023-05-07T09:29:15;22.09;67.23
71177;DHT22;58877;51.992;4.504;2023-05-07T09:31:42;22.06;67.25
71177;DHT22;58877;51.992;4.504;2023-05-07T09:34:08;21.97;66.92
71177;DHT22;58877;51.992;4.504;2023-05-07T09:36:34;21.77;67.81
71177;DHT22;58877;51.992;4.504;2023-05-07T09:39:00;21.68;67.09
71177;DHT22;58877;51.992;4.504;2023-05-07T09:41:26;21.67;68.10
71177;DHT22;58877;51.992;4.504;2023-05-07T09:43:58;21.61;67.35
71177;DHT22;58877;51.992;4.504;2023-05-07T09:46:30;21.77;68.59
71177;DHT22;58877;51.992;4.504;2023-05-07T09:49:02;21.99;67.29
71177;DHT22;58877;51.992;4.504;2023-05-07T09:51:41;22.05;67.23
71177;DHT22;58877;51.992;4.504;2023-05-07T09:54:12;22.22;66.76
71177;DHT22;58877;51.992;4.504;2023-05-07T09:56:37;22.28;66.78
71177;DHT22;58877;51.992;4.504;2023-05-07T09:59:10;22.36;66.92
71177;DHT22;58877;51.992;4.504;2023-05-07T10:01:41;22.43;65.20
71177;DHT22;58877;51.992;4.504;2023-05-07T10:04:08;22.33;65.38
71177;DHT22;58877;51.992;4.504;2023-05-07T10:06:37;22.31;65.89
71177;DHT22;58877;51.992;4.504;2023-05-07T10:09:06;22.42;65.94
71177;DHT22;58877;51.992;4.504;2023-05-07T10:11:35;22.56;66.01
71177;DHT22;58877;51.992;4.504;2023-05-07T10:14:05;22.86;65.38
71177;DHT22;58877;51.992;4.504;2023-05-07T10:16:35;22.87;62.98
71177;DHT22;58877;51.992;4.504;2023-05-07T10:19:06;22.83;62.94
71177;DHT22;58877;51.992;4.504;2023-05-07T10:21:44;23.04;63.81
71177;DHT22;58877;51.992;4.504;2023-05-07T10:24:22;23.40;61.79
71177;DHT22;58877;51.992;4.504;2023-05-07T10:26:53;23.57;61.04
71177;DHT22;58877;51.992;4.504;2023-05-07T10:34:47;23.37;62.03
71177;DHT22;58877;51.992;4.504;2023-05-07T10:37:15;23.53;61.13
71177;DHT22;58877;51.992;4.504;2023-05-07T10:39:41;23.44;61.70
71177;DHT22;58877;51.992;4.504;2023-05-07T10:42:12;23.31;61.52
71177;DHT22;58877;51.992;4.504;2023-05-07T10:44:42;23.23;59.33
71177;DHT22;58877;51.992;4.504;2023-05-07T10:47:15;23.13;60.34
71177;DHT22;58877;51.992;4.504;2023-05-07T10:52:43;23.27;61.09
71177;DHT22;58877;51.992;4.504;2023-05-07T10:55:20;23.27;61.94
71177;DHT22;58877;51.992;4.504;2023-05-07T10:57:54;23.26;61.99
71177;DHT22;58877;51.992;4.504;2023-05-07T11:05:28;23.00;61.38
71177;DHT22;58877;51.992;4.504;2023-05-07T11:08:01;22.97;61.71
71177;DHT22;58877;51.992;4.504;2023-05-07T11:10:56;23.21;61.96
71177;DHT22;58877;51.992;4.504;2023-05-07T11:13:48;23.37;61.76
71177;DHT22;58877;51.992;4.504;2023-05-07T11:18:55;23.57;61.05
71177;DHT22;58877;51.992;4.504;2023-05-07T11:21:44;23.68;61.46
71177;DHT22;58877;51.992;4.504;2023-05-07T11:24:10;23.69;60.05
71177;DHT22;58877;51.992;4.504;2023-05-07T11:26:49;23.50;60.06
71177;DHT22;58877;51.992;4.504;2023-05-07T11:29:18;23.38;61.55
71177;DHT22;58877;51.992;4.504;2023-05-07T11:31:51;23.47;61.47
71177;DHT22;58877;51.992;4.504;2023-05-07T11:34:24;23.54;61.09
71177;DHT22;58877;51.992;4.504;2023-05-07T11:36:53;23.64;61.27
71177;DHT22;58877;51.992;4.504;2023-05-07T11:39:29;23.67;61.10
71177;DHT22;58877;51.992;4.504;2023-05-07T11:41:55;23.55;60.19
71177;DHT22;58877;51.992;4.504;2023-05-07T11:44:43;23.36;60.57
71177;DHT22;58877;51.992;4.504;2023-05-07T11:47:10;23.53;62.19
71177;DHT22;58877;51.992;4.504;2023-05-07T11:49:36;23.69;60.97
71177;DHT22;58877;51.992;4.504;2023-05-07T11:52:02;23.91;61.39
71177;DHT22;58877;51.992;4.504;2023-05-07T11:54:37;23.95;61.12
71177;DHT22;58877;51.992;4.504;2023-05-07T11:57:03;24.02;61.32
71177;DHT22;58877;51.992;4.504;2023-05-07T11:59:29;23.97;60.61
71177;DHT22;58877;51.992;4.504;2023-05-07T12:01:57;23.72;59.15
71177;DHT22;58877;51.992;4.504;2023-05-07T12:04:24;23.50;59.87
71177;DHT22;58877;51.992;4.504;2023-05-07T12:06:54;23.53;61.83
71177;DHT22;58877;51.992;4.504;2023-05-07T12:09:21;23.53;63.20
71177;DHT22;58877;51.992;4.504;2023-05-07T12:11:47;23.62;60.47
71177;DHT22;58877;51.992;4.504;2023-05-07T12:14:13;23.51;60.97
71177;DHT22;58877;51.992;4.504;2023-05-07T12:16:40;23.37;61.26
71177;DHT22;58877;51.992;4.504;2023-05-07T12:19:06;23.14;60.77
71177;DHT22;58877;51.992;4.504;2023-05-07T12:21:34;23.03;62.57
71177;DHT22;58877;51.992;4.504;2023-05-07T12:24:01;22.79;61.77
71177;DHT22;58877;51.992;4.504;2023-05-07T12:26:27;22.70;62.99
71177;DHT22;58877;51.992;4.504;2023-05-07T12:28:53;22.57;63.74
71177;DHT22;58877;51.992;4.504;2023-05-07T12:31:18;22.56;63.35
71177;DHT22;58877;51.992;4.504;2023-05-07T12:33:45;22.56;63.64
71177;DHT22;58877;51.992;4.504;2023-05-07T12:36:13;22.53;63.05
71177;DHT22;58877;51.992;4.504;2023-05-07T12:38:39;22.36;61.62
71177;DHT22;58877;51.992;4.504;2023-05-07T12:41:08;21.77;63.20
71177;DHT22;58877;51.992;4.504;2023-05-07T12:43:34;20.94;66.62
71177;DHT22;58877;51.992;4.504;2023-05-07T12:46:03;20.45;68.19
71177;DHT22;58877;51.992;4.504;2023-05-07T12:48:30;20.15;69.49
71177;DHT22;58877;51.992;4.504;2023-05-07T12:50:58;19.77;71.23
71177;DHT22;58877;51.992;4.504;2023-05-07T12:53:26;19.71;71.65
71177;DHT22;58877;51.992;4.504;2023-05-07T12:55:55;19.51;72.16
71177;DHT22;58877;51.992;4.504;2023-05-07T12:58:30;19.57;73.39
71177;DHT22;58877;51.992;4.504;2023-05-07T13:00:58;19.55;73.07
71177;DHT22;58877;51.992;4.504;2023-05-07T13:03:30;19.55;73.33
71177;DHT22;58877;51.992;4.504;2023-05-07T13:06:05;19.53;72.94
71177;DHT22;58877;51.992;4.504;2023-05-07T13:08:36;19.64;73.15
71177;DHT22;58877;51.992;4.504;2023-05-07T13:11:04;19.57;73.61
71177;DHT22;58877;51.992;4.504;2023-05-07T13:13:31;19.54;73.96
71177;DHT22;58877;51.992;4.504;2023-05-07T13:15:57;19.53;73.98
71177;DHT22;58877;51.992;4.504;2023-05-07T13:18:24;19.43;74.36
71177;DHT22;58877;51.992;4.504;2023-05-07T13:20:51;19.43;74.50
71177;DHT22;58877;51.992;4.504;2023-05-07T13:23:17;19.34;74.02
71177;DHT22;58877;51.992;4.504;2023-05-07T13:25:44;19.23;74.11
71177;DHT22;58877;51.992;4.504;2023-05-07T13:28:10;19.10;73.94
71177;DHT22;58877;51.992;4.504;2023-05-07T13:30:36;19.02;75.01
71177;DHT22;58877;51.992;4.504;2023-05-07T13:33:02;19.04;74.43
71177;DHT22;58877;51.992;4.504;2023-05-07T13:35:28;19.06;74.40
71177;DHT22;58877;51.992;4.504;2023-05-07T13:37:54;18.96;74.34
71177;DHT22;58877;51.992;4.504;2023-05-07T13:40:22;19.00;74.25
71177;DHT22;58877;51.992;4.504;2023-05-07T13:42:48;18.93;74.75
71177;DHT22;58877;51.992;4.504;2023-05-07T13:45:14;19.06;74.52
71177;DHT22;58877;51.992;4.504;2023-05-07T13:47:41;19.13;74.38
71177;DHT22;58877;51.992;4.504;2023-05-07T13:50:08;19.13;74.00
71177;DHT22;58877;51.992;4.504;2023-05-07T13:52:34;19.26;74.38
71177;DHT22;58877;51.992;4.504;2023-05-07T13:55:00;19.38;74.27
71177;DHT22;58877;51.992;4.504;2023-05-07T13:57:26;19.55;73.84
71177;DHT22;58877;51.992;4.504;2023-05-07T13:59:52;19.51;74.12
71177;DHT22;58877;51.992;4.504;2023-05-07T14:02:18;19.49;74.21
71177;DHT22;58877;51.992;4.504;2023-05-07T14:04:44;19.60;73.97
71177;DHT22;58877;51.992;4.504;2023-05-07T14:07:12;19.65;73.44
71177;DHT22;58877;51.992;4.504;2023-05-07T14:09:38;19.75;73.75
71177;DHT22;58877;51.992;4.504;2023-05-07T14:12:04;19.70;74.57
71177;DHT22;58877;51.992;4.504;2023-05-07T14:14:30;19.67;75.16
71177;DHT22;58877;51.992;4.504;2023-05-07T14:16:57;19.65;75.47
71177;DHT22;58877;51.992;4.504;2023-05-07T14:19:23;19.78;75.16
71177;DHT22;58877;51.992;4.504;2023-05-07T14:21:49;19.73;74.61
71177;DHT22;58877;51.992;4.504;2023-05-07T14:24:15;19.78;75.41
71177;DHT22;58877;51.992;4.504;2023-05-07T14:26:40;19.78;75.30
71177;DHT22;58877;51.992;4.504;2023-05-07T14:29:06;19.78;75.58
71177;DHT22;58877;51.992;4.504;2023-05-07T14:31:32;19.75;75.13
71177;DHT22;58877;51.992;4.504;2023-05-07T14:33:58;20.02;75.22
71177;DHT22;58877;51.992;4.504;2023-05-07T14:36:25;20.25;74.44
71177;DHT22;58877;51.992;4.504;2023-05-07T14:38:55;20.32;74.08
71177;DHT22;58877;51.992;4.504;2023-05-07T14:41:24;20.38;73.93
71177;DHT22;58877;51.992;4.504;2023-05-07T14:43:50;20.35;74.05
71177;DHT22;58877;51.992;4.504;2023-05-07T14:46:24;20.39;73.89
71177;DHT22;58877;51.992;4.504;2023-05-07T14:48:51;20.11;74.49
71177;DHT22;58877;51.992;4.504;2023-05-07T14:51:17;20.09;74.43
71177;DHT22;58877;51.992;4.504;2023-05-07T14:53:42;19.84;75.26
71177;DHT22;58877;51.992;4.504;2023-05-07T14:56:08;19.81;76.29
71177;DHT22;58877;51.992;4.504;2023-05-07T14:58:34;19.88;76.94
71177;DHT22;58877;51.992;4.504;2023-05-07T15:01:01;19.78;76.09
71177;DHT22;58877;51.992;4.504;2023-05-07T15:03:27;19.64;77.28
71177;DHT22;58877;51.992;4.504;2023-05-07T15:05:53;19.60;77.37
71177;DHT22;58877;51.992;4.504;2023-05-07T15:08:19;19.54;78.15
71177;DHT22;58877;51.992;4.504;2023-05-07T15:10:45;19.30;78.82
71177;DHT22;58877;51.992;4.504;2023-05-07T15:13:11;19.02;79.73
71177;DHT22;58877;51.992;4.504;2023-05-07T15:15:42;18.96;80.18
71177;DHT22;58877;51.992;4.504;2023-05-07T15:18:09;18.88;80.52
71177;DHT22;58877;51.992;4.504;2023-05-07T15:20:36;18.79;81.94
71177;DHT22;58877;51.992;4.504;2023-05-07T15:23:02;18.90;82.34
71177;DHT22;58877;51.992;4.504;2023-05-07T15:25:31;19.04;82.47
71177;DHT22;58877;51.992;4.504;2023-05-07T15:27:59;19.06;82.34
71177;DHT22;58877;51.992;4.504;2023-05-07T15:30:24;18.99;82.47
71177;DHT22;58877;51.992;4.504;2023-05-07T15:32:51;18.93;82.67
71177;DHT22;58877;51.992;4.504;2023-05-07T15:35:17;18.90;83.15
71177;DHT22;58877;51.992;4.504;2023-05-07T15:37:49;18.95;83.27
71177;DHT22;58877;51.992;4.504;2023-05-07T15:40:15;19.03;83.04
71177;DHT22;58877;51.992;4.504;2023-05-07T15:42:45;19.16;82.59
71177;DHT22;58877;51.992;4.504;2023-05-07T15:45:11;19.07;82.53
71177;DHT22;58877;51.992;4.504;2023-05-07T15:47:37;19.09;82.60
71177;DHT22;58877;51.992;4.504;2023-05-07T15:50:04;19.00;82.63
71177;DHT22;58877;51.992;4.504;2023-05-07T15:52:31;18.95;82.77
71177;DHT22;58877;51.992;4.504;2023-05-07T15:54:58;18.88;82.88
71177;DHT22;58877;51.992;4.504;2023-05-07T15:57:24;18.73;82.43
71177;DHT22;58877;51.992;4.504;2023-05-07T15:59:50;18.52;82.72
71177;DHT22;58877;51.992;4.504;2023-05-07T16:02:16;18.51;83.38